createdAt,value
2023-04-01T00:00:22.663Z,89.13
2023-04-01T00:02:55.990Z,88.63
2023-04-01T00:05:29.211Z,87.86
2023-04-01T00:08:01.910Z,87.87
2023-04-01T00:10:34.881Z,87.96
2023-04-01T00:13:09.492Z,88.50
2023-04-01T00:15:42.788Z,88.58
2023-04-01T00:18:15.763Z,87.90
2023-04-01T00:20:50.816Z,88.63
2023-04-01T00:23:23.918Z,88.20
2023-04-01T00:25:56.723Z,88.13
2023-04-01T00:28:31.344Z,87.71
2023-04-01T00:31:07.337Z,88.27
2023-04-01T00:33:41.065Z,87.92
2023-04-01T00:36:15.280Z,87.85
2023-04-01T00:38:48.145Z,87.93
2023-04-01T00:41:22.366Z,87.39
2023-04-01T00:44:20.128Z,87.84
2023-04-01T00:46:54.680Z,88.29
2023-04-01T00:49:32.453Z,88.36
2023-04-01T00:52:07.624Z,87.89
2023-04-01T00:54:43.298Z,87.99
2023-04-01T00:57:22.138Z,87.97
2023-04-01T00:59:57.586Z,88.40
2023-04-01T01:02:30.945Z,88.58
2023-04-01T01:05:04.313Z,88.19
2023-04-01T01:07:45.426Z,88.63
2023-04-01T01:10:21.347Z,87.77
2023-04-01T01:13:03.708Z,88.08
2023-04-01T01:15:43.202Z,88.17
2023-04-01T01:18:21.972Z,88.61
2023-04-01T01:21:31.348Z,88.62
2023-04-01T01:24:36.875Z,88.89
2023-04-01T01:27:12.688Z,88.51
2023-04-01T01:30:08.949Z,88.79
2023-04-01T01:33:09.641Z,88.69
2023-04-01T01:35:48.330Z,88.45
2023-04-01T01:38:28.456Z,88.14
2023-04-01T01:41:14.527Z,87.55
2023-04-01T01:43:50.914Z,87.07
2023-04-01T01:46:28.421Z,87.36
2023-04-01T01:49:02.469Z,86.50
2023-04-01T01:51:36.667Z,86.69
2023-04-01T01:54:14.352Z,86.64
2023-04-01T01:56:50.838Z,86.41
2023-04-01T01:59:26.876Z,86.39
2023-04-01T02:02:01.291Z,86.59
2023-04-01T02:04:34.734Z,86.97
2023-04-01T02:07:13.815Z,87.63
2023-04-01T02:09:46.869Z,87.63
2023-04-01T02:12:25.056Z,87.36
2023-04-01T02:15:03.126Z,88.18
2023-04-01T02:17:40.686Z,87.74
2023-04-01T02:20:17.939Z,88.04
2023-04-01T02:22:55.513Z,88.22
2023-04-01T02:25:32.865Z,88.65
2023-04-01T02:28:08.468Z,88.30
2023-04-01T02:30:44.981Z,88.91
2023-04-01T02:33:19.164Z,88.64
2023-04-01T02:35:52.560Z,89.02
2023-04-01T02:38:27.043Z,88.72
2023-04-01T02:41:02.909Z,88.97
2023-04-01T02:43:36.022Z,89.04
2023-04-01T02:46:09.155Z,89.07
2023-04-01T02:48:42.092Z,88.28
2023-04-01T02:51:17.355Z,87.82
2023-04-01T02:53:52.713Z,87.94
2023-04-01T02:56:27.028Z,88.15
2023-04-01T02:59:00.403Z,88.47
2023-04-01T03:01:33.435Z,88.49
2023-04-01T03:04:06.720Z,89.38
2023-04-01T03:06:39.570Z,89.40
2023-04-01T03:09:13.807Z,89.44
2023-04-01T03:11:46.940Z,89.31
2023-04-01T03:14:20.012Z,88.87
2023-04-01T03:16:53.028Z,88.65
2023-04-01T03:19:26.357Z,88.86
2023-04-01T03:21:59.323Z,88.18
2023-04-01T03:24:33.463Z,87.96
2023-04-01T03:27:06.574Z,87.93
2023-04-01T03:29:39.682Z,87.35
2023-04-01T03:32:12.583Z,87.50
2023-04-01T03:34:45.737Z,87.44
2023-04-01T03:37:18.590Z,87.60
2023-04-01T03:39:53.110Z,87.72
2023-04-01T03:42:26.846Z,87.84
2023-04-01T03:45:00.553Z,88.12
2023-04-01T03:47:33.424Z,87.75
2023-04-01T03:50:08.638Z,87.85
2023-04-01T03:52:41.725Z,88.53
2023-04-01T03:55:16.464Z,88.53
2023-04-01T03:57:49.552Z,88.49
2023-04-01T04:00:24.980Z,87.17
2023-04-01T04:03:02.029Z,87.63
2023-04-01T04:05:38.739Z,87.94
2023-04-01T04:08:11.622Z,87.89
2023-04-01T04:10:46.195Z,88.83
2023-04-01T04:13:19.042Z,88.24
2023-04-01T04:15:57.331Z,88.30
2023-04-01T04:18:30.350Z,89.26
2023-04-01T04:21:03.435Z,90.04
2023-04-01T04:23:38.243Z,91.12
2023-04-01T04:26:15.448Z,91.38
2023-04-01T04:28:52.056Z,91.33
2023-04-01T04:31:27.251Z,91.10
2023-04-01T04:34:02.747Z,91.08
2023-04-01T04:36:39.510Z,91.35
2023-04-01T04:39:12.595Z,91.25
2023-04-01T04:41:50.361Z,91.32
2023-04-01T04:44:24.071Z,90.92
2023-04-01T04:46:58.489Z,90.89
2023-04-01T04:49:31.934Z,89.97
2023-04-01T04:52:06.110Z,89.72
2023-04-01T04:54:39.473Z,90.46
2023-04-01T04:57:15.719Z,90.74
2023-04-01T04:59:58.878Z,90.90
2023-04-01T05:02:51.244Z,90.14
2023-04-01T05:05:24.427Z,90.12
2023-04-01T05:07:57.312Z,89.60
2023-04-01T05:10:30.431Z,89.35
2023-04-01T05:13:04.766Z,89.27
2023-04-01T05:15:38.277Z,88.08
2023-04-01T05:18:11.159Z,88.23
2023-04-01T05:20:48.914Z,88.27
2023-04-01T05:23:23.547Z,88.29
2023-04-01T05:25:58.030Z,87.52
2023-04-01T05:28:32.566Z,87.36
2023-04-01T05:31:06.465Z,87.50
2023-04-01T05:33:45.657Z,86.50
2023-04-01T05:36:18.953Z,86.27
2023-04-01T05:38:52.046Z,85.70
2023-04-01T05:41:26.271Z,85.40
2023-04-01T05:44:00.503Z,85.42
2023-04-01T05:46:58.837Z,85.72
2023-04-01T05:49:34.967Z,85.79
2023-04-01T05:52:08.995Z,86.07
2023-04-01T05:54:42.998Z,85.84
2023-04-01T05:57:16.286Z,86.69
2023-04-01T05:59:50.701Z,86.32
2023-04-01T06:02:23.910Z,86.79
2023-04-01T06:05:06.030Z,86.40
2023-04-01T06:07:38.883Z,86.47
2023-04-01T06:10:15.299Z,86.79
2023-04-01T06:12:58.247Z,87.17
2023-04-01T06:15:40.414Z,87.28
2023-04-01T06:18:43.705Z,87.43
2023-04-01T06:21:35.980Z,88.46
2023-04-01T06:24:33.039Z,89.20
2023-04-01T06:27:14.724Z,89.63
2023-04-01T06:30:13.021Z,90.94
2023-04-01T06:33:08.640Z,90.90
2023-04-01T06:35:59.041Z,91.22
2023-04-01T06:38:46.158Z,90.86
2023-04-01T06:41:42.327Z,90.50
2023-04-01T06:44:22.610Z,91.11
2023-04-01T06:47:27.363Z,90.44
2023-04-01T06:50:28.694Z,89.93
2023-04-01T06:53:23.675Z,90.00
2023-04-01T06:56:19.287Z,89.66
2023-04-01T06:59:03.901Z,89.54
2023-04-01T07:01:41.556Z,88.94
2023-04-01T07:04:21.781Z,88.80
2023-04-01T07:07:00.656Z,88.80
2023-04-01T07:09:37.013Z,88.75
2023-04-01T07:12:38.953Z,89.19
2023-04-01T07:16:00.635Z,89.61
2023-04-01T07:18:43.650Z,90.13
2023-04-01T07:21:26.145Z,89.82
2023-04-01T07:24:06.909Z,89.95
2023-04-01T07:26:46.930Z,89.64
2023-04-01T07:29:23.437Z,89.55
2023-04-01T07:32:31.547Z,90.35
2023-04-01T07:35:17.172Z,90.01
2023-04-01T07:38:07.568Z,90.91
2023-04-01T07:40:50.374Z,91.32
2023-04-01T07:43:57.920Z,91.36
2023-04-01T07:46:52.103Z,91.93
2023-04-01T07:49:32.763Z,91.90
2023-04-01T07:52:14.940Z,93.37
2023-04-01T07:54:56.077Z,92.54
2023-04-01T07:57:39.146Z,93.00
2023-04-01T08:00:19.469Z,92.98
2023-04-01T08:03:23.534Z,94.95
2023-04-01T08:06:01.219Z,95.48
2023-04-01T08:08:47.754Z,97.08
2023-04-01T08:11:59.295Z,97.84
2023-04-01T08:15:13.260Z,99.89
2023-04-01T08:18:16.499Z,99.98
2023-04-01T08:20:54.894Z,100.00
2023-04-01T08:23:32.314Z,100.00
2023-04-01T08:26:12.718Z,100.00
2023-04-01T08:28:54.425Z,100.00
2023-04-01T08:31:38.057Z,100.00
2023-04-01T08:34:17.448Z,100.00
2023-04-01T08:36:56.372Z,100.00
2023-04-01T08:39:34.027Z,100.00
2023-04-01T08:42:50.337Z,100.00
2023-04-01T08:45:43.722Z,100.00
2023-04-01T08:48:50.987Z,100.00
2023-04-01T08:52:06.107Z,100.00
2023-04-01T08:55:06.924Z,100.00
2023-04-01T08:58:21.118Z,100.00
2023-04-01T09:01:28.600Z,100.00
2023-04-01T09:04:38.846Z,100.00
2023-04-01T09:07:31.795Z,100.00
2023-04-01T09:10:25.134Z,100.00
2023-04-01T09:13:13.491Z,100.00
2023-04-01T09:16:05.742Z,100.00
2023-04-01T09:19:10.107Z,100.00
2023-04-01T09:22:01.847Z,100.00
2023-04-01T09:24:46.205Z,100.00
2023-04-01T09:27:29.509Z,100.00
2023-04-01T09:30:33.871Z,100.00
2023-04-01T09:33:42.402Z,100.00
2023-04-01T09:36:27.055Z,100.00
2023-04-01T09:39:12.323Z,100.00
2023-04-01T09:41:59.358Z,100.00
2023-04-01T09:44:46.887Z,100.00
2023-04-01T09:47:39.338Z,100.00
2023-04-01T09:50:29.711Z,100.00
2023-04-01T09:53:15.766Z,100.00
2023-04-01T09:56:16.836Z,100.00
2023-04-01T09:59:17.870Z,100.00
2023-04-01T10:02:37.101Z,100.00
2023-04-01T10:05:53.155Z,100.00
2023-04-01T10:09:20.718Z,100.00
2023-04-01T10:12:22.365Z,100.00
2023-04-01T10:15:31.110Z,100.00
2023-04-01T10:18:40.223Z,100.00
2023-04-01T10:21:58.879Z,100.00
2023-04-01T10:25:19.596Z,100.00
2023-04-01T10:28:16.511Z,100.00
2023-04-01T10:31:45.278Z,100.00
2023-04-01T10:34:57.923Z,100.00
2023-04-01T10:37:53.002Z,100.00
2023-04-01T10:40:54.506Z,100.00
2023-04-01T10:44:34.910Z,100.00
2023-04-01T10:47:50.318Z,100.00
2023-04-01T10:50:51.755Z,100.00
2023-04-01T10:53:44.216Z,100.00
2023-04-01T10:56:52.061Z,100.00
2023-04-01T11:00:16.509Z,100.00
2023-04-01T11:04:00.984Z,100.00
2023-04-01T11:07:23.566Z,100.00
2023-04-01T11:10:32.483Z,100.00
2023-04-01T11:13:41.467Z,100.00
2023-04-01T11:16:45.641Z,100.00
2023-04-01T11:20:16.376Z,100.00
2023-04-01T11:23:15.388Z,100.00
2023-04-01T11:26:07.093Z,100.00
2023-04-01T11:29:40.274Z,100.00
2023-04-01T11:32:45.994Z,100.00
2023-04-01T11:35:37.280Z,100.00
2023-04-01T11:38:24.565Z,100.00
2023-04-01T11:41:28.492Z,100.00
2023-04-01T11:44:22.419Z,100.00
2023-04-01T11:47:22.087Z,100.00
2023-04-01T11:50:11.455Z,100.00
2023-04-01T11:53:00.796Z,100.00
2023-04-01T11:55:45.287Z,100.00
2023-04-01T11:58:34.358Z,100.00
2023-04-01T12:01:22.325Z,100.00
2023-04-01T12:04:29.293Z,100.00
2023-04-01T12:07:14.209Z,100.00
2023-04-01T12:09:55.400Z,100.00
2023-04-01T12:12:36.824Z,100.00
2023-04-01T12:15:22.577Z,100.00
2023-04-01T12:18:05.273Z,100.00
2023-04-01T12:20:47.750Z,100.00
2023-04-01T12:23:50.985Z,100.00
2023-04-01T12:26:49.650Z,100.00
2023-04-01T12:29:46.694Z,100.00
2023-04-01T12:32:31.948Z,100.00
2023-04-01T12:35:18.376Z,100.00
2023-04-01T12:38:00.290Z,100.00
2023-04-01T12:40:53.619Z,100.00
2023-04-01T12:43:51.808Z,100.00
2023-04-01T12:46:33.656Z,100.00
2023-04-01T12:49:30.246Z,100.00
2023-04-01T12:52:13.173Z,100.00
2023-04-01T12:55:10.945Z,100.00
2023-04-01T12:58:02.887Z,100.00
2023-04-01T13:01:07.785Z,100.00
2023-04-01T13:04:05.927Z,100.00
2023-04-01T13:07:09.808Z,100.00
2023-04-01T13:09:52.601Z,100.00
2023-04-01T13:12:49.071Z,100.00
2023-04-01T13:15:35.977Z,100.00
2023-04-01T13:18:22.379Z,100.00
2023-04-01T13:21:07.985Z,100.00
2023-04-01T13:23:57.351Z,100.00
2023-04-01T13:26:37.392Z,100.00
2023-04-01T13:29:16.449Z,100.00
2023-04-01T13:32:03.330Z,100.00
2023-04-01T13:34:50.908Z,100.00
2023-04-01T13:37:36.125Z,100.00
2023-04-01T13:40:28.031Z,100.00
2023-04-01T13:43:05.978Z,100.00
2023-04-01T13:45:52.464Z,100.00
2023-04-01T13:48:43.089Z,100.00
2023-04-01T13:51:31.851Z,100.00
2023-04-01T13:54:42.902Z,100.00
2023-04-01T13:57:36.397Z,100.00
2023-04-01T14:00:35.349Z,100.00
2023-04-01T14:03:27.339Z,100.00
2023-04-01T14:06:12.333Z,100.00
2023-04-01T14:09:01.177Z,100.00
2023-04-01T14:11:42.119Z,100.00
2023-04-01T14:14:29.424Z,100.00
2023-04-01T14:17:36.929Z,100.00
2023-04-01T14:20:32.752Z,100.00
2023-04-01T14:23:27.954Z,100.00
2023-04-01T14:26:12.582Z,100.00
2023-04-01T14:28:53.804Z,100.00
2023-04-01T14:31:40.546Z,100.00
2023-04-01T14:34:33.464Z,100.00
2023-04-01T14:37:22.197Z,100.00
2023-04-01T14:40:29.843Z,100.00
2023-04-01T14:43:27.710Z,100.00
2023-04-01T14:46:34.802Z,100.00
2023-04-01T14:49:21.539Z,100.00
2023-04-01T14:51:55.355Z,100.00
2023-04-01T14:54:36.410Z,100.00
2023-04-01T14:57:16.109Z,100.00
2023-04-01T14:59:52.939Z,100.00
2023-04-01T15:02:46.738Z,100.00
2023-04-01T15:05:34.078Z,100.00
2023-04-01T15:08:19.162Z,100.00
2023-04-01T15:11:07.872Z,100.00
2023-04-01T15:14:28.334Z,100.00
2023-04-01T15:17:15.165Z,100.00
2023-04-01T15:20:07.475Z,100.00
2023-04-01T15:23:00.854Z,100.00
2023-04-01T15:25:45.315Z,100.00
2023-04-01T15:28:31.920Z,100.00
2023-04-01T15:31:14.877Z,100.00
2023-04-01T15:33:56.369Z,100.00
2023-04-01T15:36:43.135Z,100.00
2023-04-01T15:39:22.091Z,100.00
2023-04-01T15:42:13.763Z,100.00
2023-04-01T15:45:05.770Z,100.00
2023-04-01T15:47:44.945Z,100.00
2023-04-01T15:50:55.626Z,100.00
2023-04-01T15:53:33.809Z,100.00
2023-04-01T15:56:24.627Z,100.00
2023-04-01T15:59:10.026Z,100.00
2023-04-01T16:01:48.881Z,100.00
2023-04-01T16:04:39.450Z,100.00
2023-04-01T16:07:19.940Z,100.00
2023-04-01T16:10:08.876Z,100.00
2023-04-01T16:12:55.102Z,100.00
2023-04-01T16:15:37.142Z,100.00
2023-04-01T16:18:37.478Z,100.00
2023-04-01T16:21:17.002Z,100.00
2023-04-01T16:23:55.609Z,100.00
2023-04-01T16:26:37.224Z,100.00
2023-04-01T16:29:14.465Z,100.00
2023-04-01T16:31:53.105Z,100.00
2023-04-01T16:34:32.704Z,100.00
2023-04-01T16:37:13.940Z,100.00
2023-04-01T16:39:52.589Z,100.00
2023-04-01T16:42:37.520Z,100.00
2023-04-01T16:45:25.512Z,100.00
2023-04-01T16:48:02.331Z,100.00
2023-04-01T16:50:50.483Z,100.00
2023-04-01T16:53:39.510Z,100.00
2023-04-01T16:56:16.356Z,100.00
2023-04-01T16:59:04.721Z,100.00
2023-04-01T17:01:45.688Z,100.00
2023-04-01T17:04:26.340Z,100.00
2023-04-01T17:07:03.414Z,100.00
2023-04-01T17:09:51.936Z,100.00
2023-04-01T17:12:30.166Z,100.00
2023-04-01T17:15:14.205Z,100.00
2023-04-01T17:17:54.129Z,100.00
2023-04-01T17:20:40.198Z,100.00
2023-04-01T17:23:20.302Z,100.00
2023-04-01T17:26:03.370Z,100.00
2023-04-01T17:28:53.396Z,100.00
2023-04-01T17:31:40.812Z,100.00
2023-04-01T17:34:31.335Z,100.00
2023-04-01T17:37:21.817Z,100.00
2023-04-01T17:40:03.487Z,100.00
2023-04-01T17:42:44.850Z,100.00
2023-04-01T17:45:26.733Z,100.00
2023-04-01T17:48:12.379Z,100.00
2023-04-01T17:50:54.305Z,100.00
2023-04-01T17:53:41.320Z,100.00
2023-04-01T17:56:26.569Z,100.00
2023-04-01T17:59:18.445Z,100.00
2023-04-01T18:02:04.392Z,100.00
2023-04-01T18:05:24.344Z,100.00
2023-04-01T18:08:14.553Z,100.00
2023-04-01T18:11:07.849Z,100.00
2023-04-01T18:14:11.798Z,100.00
2023-04-01T18:17:05.380Z,100.00
2023-04-01T18:19:55.649Z,100.00
2023-04-01T18:22:42.447Z,100.00
2023-04-01T18:25:26.793Z,100.00
2023-04-01T18:28:24.364Z,100.00
2023-04-01T18:31:11.204Z,100.00
2023-04-01T18:33:58.863Z,100.00
2023-04-01T18:36:43.187Z,100.00
2023-04-01T18:39:26.557Z,100.00
2023-04-01T18:42:10.779Z,100.00
2023-04-01T18:44:52.830Z,100.00
2023-04-01T18:47:45.049Z,100.00
2023-04-01T18:50:30.004Z,100.00
2023-04-01T18:53:24.554Z,100.00
2023-04-01T18:56:04.962Z,100.00
2023-04-01T18:58:50.372Z,100.00
2023-04-01T19:01:35.981Z,100.00
2023-04-01T19:04:22.855Z,100.00
2023-04-01T19:07:03.281Z,100.00
2023-04-01T19:09:48.169Z,100.00
2023-04-01T19:12:39.572Z,100.00
2023-04-01T19:15:29.572Z,100.00
2023-04-01T19:18:30.198Z,100.00
2023-04-01T19:21:13.809Z,100.00
2023-04-01T19:24:27.434Z,100.00
2023-04-01T19:27:17.230Z,100.00
2023-04-01T19:30:17.015Z,100.00
2023-04-01T19:33:04.077Z,100.00
2023-04-01T19:35:47.455Z,100.00
2023-04-01T19:38:35.992Z,100.00
2023-04-01T19:41:28.779Z,100.00
2023-04-01T19:44:20.713Z,100.00
2023-04-01T19:47:08.939Z,100.00
2023-04-01T19:50:00.881Z,100.00
2023-04-01T19:52:41.622Z,100.00
2023-04-01T19:55:34.242Z,100.00
2023-04-01T19:58:22.058Z,100.00
2023-04-01T20:01:01.321Z,100.00
2023-04-01T20:03:46.195Z,100.00
2023-04-01T20:06:34.197Z,100.00
2023-04-01T20:09:36.154Z,100.00
2023-04-01T20:12:27.200Z,100.00
2023-04-01T20:15:22.358Z,100.00
2023-04-01T20:18:02.090Z,100.00
2023-04-01T20:20:41.042Z,100.00
2023-04-01T20:23:35.017Z,100.00
2023-04-01T20:26:14.366Z,100.00
2023-04-01T20:29:21.015Z,100.00
2023-04-01T20:32:08.614Z,100.00
2023-04-01T20:35:08.608Z,100.00
2023-04-01T20:37:53.764Z,100.00
2023-04-01T20:40:37.871Z,100.00
2023-04-01T20:43:42.684Z,100.00
2023-04-01T20:46:25.659Z,100.00
2023-04-01T20:49:42.214Z,100.00
2023-04-01T20:52:27.565Z,100.00
2023-04-01T20:55:42.603Z,100.00
2023-04-01T20:58:27.629Z,100.00
2023-04-01T21:01:15.570Z,100.00
2023-04-01T21:04:12.211Z,100.00
2023-04-01T21:07:03.255Z,100.00
2023-04-01T21:09:57.931Z,100.00
2023-04-01T21:12:45.219Z,100.00
2023-04-01T21:15:40.275Z,100.00
2023-04-01T21:18:47.335Z,100.00
2023-04-01T21:21:43.943Z,100.00
2023-04-01T21:24:41.939Z,100.00
2023-04-01T21:27:18.521Z,100.00
2023-04-01T21:29:57.963Z,100.00
2023-04-01T21:32:45.827Z,100.00
2023-04-01T21:35:28.297Z,100.00
2023-04-01T21:38:26.259Z,100.00
2023-04-01T21:41:07.211Z,100.00
2023-04-01T21:43:58.321Z,100.00
2023-04-01T21:47:02.786Z,100.00
2023-04-01T21:49:48.392Z,100.00
2023-04-01T21:52:47.924Z,100.00
2023-04-01T21:55:52.957Z,100.00
2023-04-01T21:58:48.180Z,100.00
2023-04-01T22:01:34.196Z,100.00
2023-04-01T22:04:44.393Z,100.00
2023-04-01T22:07:17.821Z,100.00
2023-04-01T22:09:54.948Z,100.00
2023-04-01T22:12:31.859Z,100.00
2023-04-01T22:15:06.025Z,100.00
2023-04-01T22:17:40.878Z,100.00
2023-04-01T22:20:22.367Z,100.00
2023-04-01T22:23:00.645Z,100.00
2023-04-01T22:25:35.927Z,100.00
2023-04-01T22:28:09.669Z,100.00
2023-04-01T22:30:43.477Z,100.00
2023-04-01T22:33:18.959Z,100.00
2023-04-01T22:35:56.721Z,100.00
2023-04-01T22:38:41.265Z,100.00
2023-04-01T22:41:22.102Z,100.00
2023-04-01T22:43:59.080Z,100.00
2023-04-01T22:46:50.150Z,100.00
2023-04-01T22:49:23.819Z,100.00
2023-04-01T22:51:57.147Z,100.00
2023-04-01T22:54:30.066Z,100.00
2023-04-01T22:57:01.988Z,100.00
2023-04-01T22:59:37.159Z,100.00
2023-04-01T23:02:12.893Z,100.00
2023-04-01T23:04:44.880Z,100.00
2023-04-01T23:07:36.267Z,100.00
2023-04-01T23:10:07.832Z,100.00
2023-04-01T23:12:36.838Z,100.00
2023-04-01T23:15:07.067Z,100.00
2023-04-01T23:18:05.094Z,100.00
2023-04-01T23:20:52.699Z,100.00
2023-04-01T23:23:32.788Z,100.00
2023-04-01T23:26:08.408Z,100.00
2023-04-01T23:28:45.579Z,100.00
2023-04-01T23:31:31.954Z,100.00
2023-04-01T23:34:02.283Z,100.00
2023-04-01T23:36:31.577Z,100.00
2023-04-01T23:39:08.411Z,100.00
2023-04-01T23:41:36.785Z,100.00
2023-04-01T23:44:07.857Z,100.00
2023-04-01T23:46:39.576Z,100.00
2023-04-01T23:49:12.906Z,100.00
2023-04-01T23:51:50.306Z,100.00
2023-04-01T23:54:22.731Z,100.00
2023-04-01T23:56:54.518Z,100.00
2023-04-01T23:59:29.389Z,100.00
